Progresso, New Mexico
Current Conditions -  °F | °C
As of 4:55 PM on Thursday 18 Dec 2014 (Local Time) from K0E0 Reporting Station
Overcast Overcast  
Wind Chill:   Ceiling: 4200
Heat Index:   Visibility: 10mi
Dew Point: -5°   Wind: 6mph
Humidity: 58%   Direction: 310°NW
Pressure: 30.09"   Gusts: NA
Location:  34.4464°N, 106.01°W
Report Text: K0E0 182355Z AUTO 31005KT 10SM BKN042 OVC050 03/M05 A3009 RMK AO2 T00301046 10070 20030
Loading
Personal Weather Stations






























Interactive Weather Map New forecast layout! Learn more

10-Day Weather Forecast

Advertisements
Track Severe Weather on mobile